sensor_id;sensor_type;location;lat;lon;timestamp;pressure;altitude;pressure_sealevel;temperature;humidity
53651;BME280;39552;45.776;15.892;2022-11-11T00:01:05;102181.31;;;11.76;100.00
53651;BME280;39552;45.776;15.892;2022-11-11T00:03:32;102161.00;;;11.90;100.00
53651;BME280;39552;45.776;15.892;2022-11-11T00:06:00;102109.34;;;11.66;100.00
53651;BME280;39552;45.776;15.892;2022-11-11T00:08:27;102157.88;;;12.02;100.00
53651;BME280;39552;45.776;15.892;2022-11-11T00:11:00;102168.25;;;11.88;100.00
53651;BME280;39552;45.776;15.892;2022-11-11T00:13:28;102169.47;;;11.79;100.00
53651;BME280;39552;45.776;15.892;2022-11-11T00:15:55;102173.28;;;11.73;100.00
53651;BME280;39552;45.776;15.892;2022-11-11T00:18:22;102188.97;;;11.35;100.00
53651;BME280;39552;45.776;15.892;2022-11-11T00:20:49;102181.09;;;11.28;100.00
53651;BME280;39552;45.776;15.892;2022-11-11T00:23:19;102199.81;;;11.64;100.00
53651;BME280;39552;45.776;15.892;2022-11-11T00:25:50;102189.50;;;11.75;100.00
53651;BME280;39552;45.776;15.892;2022-11-11T00:28:19;102185.88;;;11.48;100.00
53651;BME280;39552;45.776;15.892;2022-11-11T00:30:47;102169.91;;;11.38;100.00
53651;BME280;39552;45.776;15.892;2022-11-11T00:33:13;102194.22;;;11.68;100.00
53651;BME280;39552;45.776;15.892;2022-11-11T00:35:40;102176.25;;;11.66;100.00
53651;BME280;39552;45.776;15.892;2022-11-11T00:38:08;102143.81;;;11.36;100.00
53651;BME280;39552;45.776;15.892;2022-11-11T00:40:36;102203.97;;;11.74;100.00
53651;BME280;39552;45.776;15.892;2022-11-11T00:43:03;102197.34;;;11.84;100.00
53651;BME280;39552;45.776;15.892;2022-11-11T00:45:31;102193.94;;;11.77;100.00
53651;BME280;39552;45.776;15.892;2022-11-11T00:47:57;102146.84;;;11.53;100.00
53651;BME280;39552;45.776;15.892;2022-11-11T00:50:25;102201.72;;;11.88;100.00
53651;BME280;39552;45.776;15.892;2022-11-11T00:52:52;102204.72;;;11.79;100.00
53651;BME280;39552;45.776;15.892;2022-11-11T00:55:19;102163.44;;;11.71;100.00
53651;BME280;39552;45.776;15.892;2022-11-11T00:57:46;102135.75;;;11.61;100.00
53651;BME280;39552;45.776;15.892;2022-11-11T01:00:13;102142.25;;;11.55;100.00
53651;BME280;39552;45.776;15.892;2022-11-11T01:02:41;102145.22;;;11.48;100.00
53651;BME280;39552;45.776;15.892;2022-11-11T01:05:08;102182.28;;;11.74;100.00
53651;BME280;39552;45.776;15.892;2022-11-11T01:07:35;102185.59;;;11.84;100.00
53651;BME280;39552;45.776;15.892;2022-11-11T01:10:02;102193.34;;;11.68;100.00
53651;BME280;39552;45.776;15.892;2022-11-11T01:12:29;102192.66;;;11.89;100.00
53651;BME280;39552;45.776;15.892;2022-11-11T01:14:56;102199.41;;;11.76;100.00
53651;BME280;39552;45.776;15.892;2022-11-11T01:17:23;102183.25;;;11.73;100.00
53651;BME280;39552;45.776;15.892;2022-11-11T01:19:51;102201.69;;;11.61;100.00
53651;BME280;39552;45.776;15.892;2022-11-11T01:22:18;102202.28;;;11.71;100.00
53651;BME280;39552;45.776;15.892;2022-11-11T01:24:45;102191.50;;;11.68;100.00
53651;BME280;39552;45.776;15.892;2022-11-11T01:27:11;102199.94;;;11.87;100.00
53651;BME280;39552;45.776;15.892;2022-11-11T01:29:38;102194.63;;;11.84;100.00
53651;BME280;39552;45.776;15.892;2022-11-11T01:32:05;102188.47;;;11.79;100.00
53651;BME280;39552;45.776;15.892;2022-11-11T01:34:32;102185.41;;;11.90;100.00
53651;BME280;39552;45.776;15.892;2022-11-11T01:37:00;102175.13;;;11.73;100.00
53651;BME280;39552;45.776;15.892;2022-11-11T01:39:26;102152.19;;;11.55;100.00
53651;BME280;39552;45.776;15.892;2022-11-11T01:41:53;102169.56;;;11.76;100.00
53651;BME280;39552;45.776;15.892;2022-11-11T01:44:44;102175.53;;;11.87;100.00
53651;BME280;39552;45.776;15.892;2022-11-11T01:47:12;102164.84;;;11.83;100.00
53651;BME280;39552;45.776;15.892;2022-11-11T01:49:46;102155.19;;;11.74;100.00
53651;BME280;39552;45.776;15.892;2022-11-11T01:52:19;102117.78;;;11.57;100.00
53651;BME280;39552;45.776;15.892;2022-11-11T01:54:49;102106.25;;;11.52;100.00
53651;BME280;39552;45.776;15.892;2022-11-11T01:57:21;102150.66;;;11.74;100.00
53651;BME280;39552;45.776;15.892;2022-11-11T01:59:52;102152.47;;;11.74;100.00
53651;BME280;39552;45.776;15.892;2022-11-11T02:02:24;102110.53;;;11.59;100.00
53651;BME280;39552;45.776;15.892;2022-11-11T02:04:53;102146.56;;;11.89;100.00
53651;BME280;39552;45.776;15.892;2022-11-11T02:07:23;102140.16;;;11.64;100.00
53651;BME280;39552;45.776;15.892;2022-11-11T02:09:51;102136.97;;;11.77;100.00
53651;BME280;39552;45.776;15.892;2022-11-11T02:12:19;102134.72;;;11.92;100.00
53651;BME280;39552;45.776;15.892;2022-11-11T02:14:48;102105.16;;;11.57;100.00
53651;BME280;39552;45.776;15.892;2022-11-11T02:17:17;102100.25;;;11.69;100.00
53651;BME280;39552;45.776;15.892;2022-11-11T02:19:48;102115.47;;;11.73;100.00
53651;BME280;39552;45.776;15.892;2022-11-11T02:22:22;102124.78;;;11.64;100.00
53651;BME280;39552;45.776;15.892;2022-11-11T02:24:52;102131.00;;;11.68;100.00
53651;BME280;39552;45.776;15.892;2022-11-11T02:27:21;102077.44;;;11.49;100.00
53651;BME280;39552;45.776;15.892;2022-11-11T02:29:51;102095.41;;;11.52;100.00
53651;BME280;39552;45.776;15.892;2022-11-11T02:32:21;102097.78;;;11.61;100.00
53651;BME280;39552;45.776;15.892;2022-11-11T02:34:48;102096.69;;;11.67;100.00
53651;BME280;39552;45.776;15.892;2022-11-11T02:37:18;102127.13;;;11.75;100.00
53651;BME280;39552;45.776;15.892;2022-11-11T02:39:47;102123.09;;;11.87;100.00
53651;BME280;39552;45.776;15.892;2022-11-11T02:42:33;102110.25;;;11.67;100.00
53651;BME280;39552;45.776;15.892;2022-11-11T02:45:00;102112.75;;;11.73;100.00
53651;BME280;39552;45.776;15.892;2022-11-11T02:47:27;102118.88;;;11.78;100.00
53651;BME280;39552;45.776;15.892;2022-11-11T02:49:54;102107.94;;;11.54;100.00
53651;BME280;39552;45.776;15.892;2022-11-11T02:52:20;102117.44;;;11.41;100.00
53651;BME280;39552;45.776;15.892;2022-11-11T02:54:47;102127.44;;;11.39;100.00
53651;BME280;39552;45.776;15.892;2022-11-11T02:57:14;102107.50;;;11.41;100.00
53651;BME280;39552;45.776;15.892;2022-11-11T02:59:43;102120.97;;;11.43;100.00
53651;BME280;39552;45.776;15.892;2022-11-11T03:02:10;102097.41;;;11.45;100.00
53651;BME280;39552;45.776;15.892;2022-11-11T03:04:37;102123.88;;;11.37;100.00
53651;BME280;39552;45.776;15.892;2022-11-11T03:07:05;102133.56;;;11.17;100.00
53651;BME280;39552;45.776;15.892;2022-11-11T03:09:32;102135.72;;;11.06;100.00
53651;BME280;39552;45.776;15.892;2022-11-11T03:11:59;102138.72;;;11.25;100.00
53651;BME280;39552;45.776;15.892;2022-11-11T03:14:26;102158.03;;;11.14;100.00
53651;BME280;39552;45.776;15.892;2022-11-11T03:16:54;102105.69;;;10.86;100.00
53651;BME280;39552;45.776;15.892;2022-11-11T03:19:21;102162.22;;;11.25;100.00
53651;BME280;39552;45.776;15.892;2022-11-11T03:21:48;102112.72;;;11.19;100.00
53651;BME280;39552;45.776;15.892;2022-11-11T03:24:35;102114.63;;;11.44;100.00
53651;BME280;39552;45.776;15.892;2022-11-11T03:27:02;102109.81;;;10.97;100.00
53651;BME280;39552;45.776;15.892;2022-11-11T03:29:28;102143.19;;;10.98;100.00
53651;BME280;39552;45.776;15.892;2022-11-11T03:31:56;102117.16;;;10.94;100.00
53651;BME280;39552;45.776;15.892;2022-11-11T03:34:23;102130.75;;;11.20;100.00
53651;BME280;39552;45.776;15.892;2022-11-11T03:36:50;102140.06;;;11.12;100.00
53651;BME280;39552;45.776;15.892;2022-11-11T03:39:17;102147.78;;;11.24;100.00
53651;BME280;39552;45.776;15.892;2022-11-11T03:41:43;102137.88;;;10.95;100.00
53651;BME280;39552;45.776;15.892;2022-11-11T03:44:10;102118.91;;;10.95;100.00
53651;BME280;39552;45.776;15.892;2022-11-11T03:46:37;102155.91;;;11.24;100.00
53651;BME280;39552;45.776;15.892;2022-11-11T03:49:05;102144.94;;;10.99;100.00
53651;BME280;39552;45.776;15.892;2022-11-11T03:51:31;102154.03;;;10.98;100.00
53651;BME280;39552;45.776;15.892;2022-11-11T03:53:58;102168.66;;;10.92;100.00
53651;BME280;39552;45.776;15.892;2022-11-11T03:56:25;102156.31;;;10.82;100.00
53651;BME280;39552;45.776;15.892;2022-11-11T03:58:52;102151.88;;;10.79;100.00
53651;BME280;39552;45.776;15.892;2022-11-11T04:01:18;102178.41;;;10.98;100.00
53651;BME280;39552;45.776;15.892;2022-11-11T04:03:45;102168.31;;;10.73;100.00
53651;BME280;39552;45.776;15.892;2022-11-11T04:06:13;102168.31;;;10.73;100.00
53651;BME280;39552;45.776;15.892;2022-11-11T04:08:40;102172.47;;;10.85;100.00
53651;BME280;39552;45.776;15.892;2022-11-11T04:11:08;102181.72;;;11.08;100.00
53651;BME280;39552;45.776;15.892;2022-11-11T04:13:37;102149.38;;;10.72;100.00
53651;BME280;39552;45.776;15.892;2022-11-11T04:16:05;102151.72;;;10.86;100.00
53651;BME280;39552;45.776;15.892;2022-11-11T04:18:32;102151.44;;;10.63;100.00
53651;BME280;39552;45.776;15.892;2022-11-11T04:20:58;102175.53;;;10.73;100.00
53651;BME280;39552;45.776;15.892;2022-11-11T04:23:26;102126.31;;;10.58;100.00
53651;BME280;39552;45.776;15.892;2022-11-11T04:25:53;102181.31;;;10.92;100.00
53651;BME280;39552;45.776;15.892;2022-11-11T04:28:20;102176.91;;;10.88;100.00
53651;BME280;39552;45.776;15.892;2022-11-11T04:30:47;102165.19;;;10.56;100.00
53651;BME280;39552;45.776;15.892;2022-11-11T04:33:13;102166.41;;;10.46;100.00
53651;BME280;39552;45.776;15.892;2022-11-11T04:35:40;102173.47;;;10.51;100.00
53651;BME280;39552;45.776;15.892;2022-11-11T04:38:07;102158.19;;;10.49;100.00
53651;BME280;39552;45.776;15.892;2022-11-11T04:40:35;102181.72;;;10.78;100.00
53651;BME280;39552;45.776;15.892;2022-11-11T04:43:02;102184.66;;;10.70;100.00
53651;BME280;39552;45.776;15.892;2022-11-11T04:45:28;102164.03;;;10.33;100.00
53651;BME280;39552;45.776;15.892;2022-11-11T04:47:57;102159.09;;;10.49;100.00
53651;BME280;39552;45.776;15.892;2022-11-11T04:50:26;102188.81;;;10.82;100.00
53651;BME280;39552;45.776;15.892;2022-11-11T04:52:53;102194.03;;;10.88;100.00
53651;BME280;39552;45.776;15.892;2022-11-11T04:55:20;102149.16;;;10.50;100.00
53651;BME280;39552;45.776;15.892;2022-11-11T04:57:49;102196.03;;;10.81;100.00
53651;BME280;39552;45.776;15.892;2022-11-11T05:00:17;102210.50;;;10.80;100.00
53651;BME280;39552;45.776;15.892;2022-11-11T05:02:44;102210.44;;;10.84;100.00
53651;BME280;39552;45.776;15.892;2022-11-11T05:05:11;102190.28;;;10.62;100.00
53651;BME280;39552;45.776;15.892;2022-11-11T05:07:38;102213.16;;;10.84;100.00
53651;BME280;39552;45.776;15.892;2022-11-11T05:10:05;102152.72;;;10.50;100.00
53651;BME280;39552;45.776;15.892;2022-11-11T05:12:32;102180.13;;;10.71;100.00
53651;BME280;39552;45.776;15.892;2022-11-11T05:15:00;102152.66;;;10.20;100.00
53651;BME280;39552;45.776;15.892;2022-11-11T05:17:27;102171.66;;;10.17;100.00
53651;BME280;39552;45.776;15.892;2022-11-11T05:19:53;102175.03;;;10.58;100.00
53651;BME280;39552;45.776;15.892;2022-11-11T05:22:22;102179.75;;;10.52;100.00
53651;BME280;39552;45.776;15.892;2022-11-11T05:24:49;102178.16;;;10.45;100.00
53651;BME280;39552;45.776;15.892;2022-11-11T05:27:16;102194.88;;;10.60;100.00
53651;BME280;39552;45.776;15.892;2022-11-11T05:29:43;102208.72;;;10.48;100.00
53651;BME280;39552;45.776;15.892;2022-11-11T05:32:15;102217.22;;;10.67;100.00
53651;BME280;39552;45.776;15.892;2022-11-11T05:34:42;102220.19;;;10.58;100.00
53651;BME280;39552;45.776;15.892;2022-11-11T05:37:09;102204.59;;;10.33;100.00
53651;BME280;39552;45.776;15.892;2022-11-11T05:39:36;102183.44;;;9.80;100.00
53651;BME280;39552;45.776;15.892;2022-11-11T05:42:03;102228.78;;;10.05;100.00
53651;BME280;39552;45.776;15.892;2022-11-11T05:44:29;102197.06;;;9.77;100.00
53651;BME280;39552;45.776;15.892;2022-11-11T05:46:56;102235.81;;;10.12;100.00
53651;BME280;39552;45.776;15.892;2022-11-11T05:49:25;102232.84;;;10.21;100.00
53651;BME280;39552;45.776;15.892;2022-11-11T05:51:51;102248.97;;;10.26;100.00
53651;BME280;39552;45.776;15.892;2022-11-11T05:54:18;102220.81;;;10.35;100.00
53651;BME280;39552;45.776;15.892;2022-11-11T05:56:45;102250.38;;;10.42;100.00
53651;BME280;39552;45.776;15.892;2022-11-11T05:59:12;102238.25;;;10.21;100.00
53651;BME280;39552;45.776;15.892;2022-11-11T06:01:39;102191.97;;;9.99;100.00
53651;BME280;39552;45.776;15.892;2022-11-11T06:04:06;102207.56;;;10.24;100.00
53651;BME280;39552;45.776;15.892;2022-11-11T06:06:35;102267.81;;;10.31;100.00
53651;BME280;39552;45.776;15.892;2022-11-11T06:09:02;102238.66;;;10.06;100.00
53651;BME280;39552;45.776;15.892;2022-11-11T06:11:29;102259.53;;;10.01;100.00
53651;BME280;39552;45.776;15.892;2022-11-11T06:13:58;102259.69;;;10.29;100.00
53651;BME280;39552;45.776;15.892;2022-11-11T06:16:25;102263.06;;;10.40;100.00
53651;BME280;39552;45.776;15.892;2022-11-11T06:18:52;102234.00;;;10.13;100.00
53651;BME280;39552;45.776;15.892;2022-11-11T06:21:18;102224.09;;;10.12;100.00
53651;BME280;39552;45.776;15.892;2022-11-11T06:23:47;102246.38;;;10.21;100.00
53651;BME280;39552;45.776;15.892;2022-11-11T06:26:13;102259.94;;;10.56;100.00
53651;BME280;39552;45.776;15.892;2022-11-11T06:28:41;102287.16;;;10.82;100.00
53651;BME280;39552;45.776;15.892;2022-11-11T06:31:09;102276.69;;;10.70;100.00
53651;BME280;39552;45.776;15.892;2022-11-11T06:33:37;102239.50;;;10.44;100.00
53651;BME280;39552;45.776;15.892;2022-11-11T06:36:05;102249.41;;;10.45;100.00
53651;BME280;39552;45.776;15.892;2022-11-11T06:38:32;102303.25;;;10.89;100.00
53651;BME280;39552;45.776;15.892;2022-11-11T06:41:00;102285.97;;;10.60;100.00
53651;BME280;39552;45.776;15.892;2022-11-11T06:43:27;102323.16;;;10.88;100.00
53651;BME280;39552;45.776;15.892;2022-11-11T06:45:55;102320.97;;;11.00;100.00
53651;BME280;39552;45.776;15.892;2022-11-11T06:48:24;102291.53;;;10.88;100.00
53651;BME280;39552;45.776;15.892;2022-11-11T06:50:51;102314.81;;;10.95;100.00
53651;BME280;39552;45.776;15.892;2022-11-11T06:53:19;102318.88;;;10.77;100.00
53651;BME280;39552;45.776;15.892;2022-11-11T06:55:47;102326.97;;;11.12;100.00
53651;BME280;39552;45.776;15.892;2022-11-11T06:58:19;102308.66;;;10.89;100.00
53651;BME280;39552;45.776;15.892;2022-11-11T07:00:47;102326.16;;;11.08;100.00
53651;BME280;39552;45.776;15.892;2022-11-11T07:03:51;102328.97;;;11.36;100.00
53651;BME280;39552;45.776;15.892;2022-11-11T07:06:17;102312.13;;;11.25;100.00
53651;BME280;39552;45.776;15.892;2022-11-11T07:08:44;102287.03;;;10.87;100.00
53651;BME280;39552;45.776;15.892;2022-11-11T07:11:11;102318.97;;;11.07;100.00
53651;BME280;39552;45.776;15.892;2022-11-11T07:13:45;102339.44;;;11.49;100.00
53651;BME280;39552;45.776;15.892;2022-11-11T07:16:12;102313.41;;;11.12;100.00
53651;BME280;39552;45.776;15.892;2022-11-11T07:18:39;102329.19;;;11.29;100.00
53651;BME280;39552;45.776;15.892;2022-11-11T07:21:06;102335.16;;;11.41;100.00
53651;BME280;39552;45.776;15.892;2022-11-11T07:23:32;102311.47;;;11.17;100.00
53651;BME280;39552;45.776;15.892;2022-11-11T07:25:59;102318.53;;;11.23;100.00
53651;BME280;39552;45.776;15.892;2022-11-11T07:28:26;102296.63;;;10.99;100.00
53651;BME280;39552;45.776;15.892;2022-11-11T07:30:54;102332.63;;;11.02;100.00
53651;BME280;39552;45.776;15.892;2022-11-11T07:33:21;102301.72;;;10.78;100.00
53651;BME280;39552;45.776;15.892;2022-11-11T07:35:50;102331.78;;;11.32;100.00
53651;BME280;39552;45.776;15.892;2022-11-11T07:38:17;102339.19;;;11.56;100.00
53651;BME280;39552;45.776;15.892;2022-11-11T07:40:44;102290.53;;;11.22;100.00
53651;BME280;39552;45.776;15.892;2022-11-11T07:43:10;102309.38;;;11.56;100.00
53651;BME280;39552;45.776;15.892;2022-11-11T07:45:37;102335.75;;;11.81;100.00
53651;BME280;39552;45.776;15.892;2022-11-11T07:48:05;102299.00;;;11.71;100.00
53651;BME280;39552;45.776;15.892;2022-11-11T07:50:32;102326.34;;;12.21;100.00
53651;BME280;39552;45.776;15.892;2022-11-11T07:52:59;102319.84;;;11.98;100.00
53651;BME280;39552;45.776;15.892;2022-11-11T07:55:36;102319.97;;;12.22;100.00
53651;BME280;39552;45.776;15.892;2022-11-11T07:58:03;102270.84;;;12.03;100.00
53651;BME280;39552;45.776;15.892;2022-11-11T08:00:30;102264.84;;;11.93;100.00
53651;BME280;39552;45.776;15.892;2022-11-11T08:02:57;102315.38;;;12.24;100.00
53651;BME280;39552;45.776;15.892;2022-11-11T08:05:55;102317.13;;;11.98;100.00
53651;BME280;39552;45.776;15.892;2022-11-11T08:08:22;102297.41;;;12.20;100.00
53651;BME280;39552;45.776;15.892;2022-11-11T08:10:51;102257.44;;;11.98;100.00
53651;BME280;39552;45.776;15.892;2022-11-11T08:13:18;102321.31;;;12.62;100.00
53651;BME280;39552;45.776;15.892;2022-11-11T08:15:45;102318.13;;;12.76;100.00
53651;BME280;39552;45.776;15.892;2022-11-11T08:18:13;102278.50;;;12.44;100.00
53651;BME280;39552;45.776;15.892;2022-11-11T08:20:40;102282.69;;;13.04;100.00
53651;BME280;39552;45.776;15.892;2022-11-11T08:23:13;102268.94;;;13.32;100.00
53651;BME280;39552;45.776;15.892;2022-11-11T08:26:00;102288.94;;;13.77;100.00
53651;BME280;39552;45.776;15.892;2022-11-11T08:28:28;102275.09;;;13.37;100.00
53651;BME280;39552;45.776;15.892;2022-11-11T08:30:57;102246.59;;;13.24;100.00
53651;BME280;39552;45.776;15.892;2022-11-11T08:33:29;102296.53;;;13.69;100.00
53651;BME280;39552;45.776;15.892;2022-11-11T08:36:00;102268.53;;;13.89;100.00
53651;BME280;39552;45.776;15.892;2022-11-11T08:38:30;102294.31;;;13.79;100.00
53651;BME280;39552;45.776;15.892;2022-11-11T08:40:58;102279.69;;;13.59;100.00
53651;BME280;39552;45.776;15.892;2022-11-11T08:43:26;102294.47;;;13.75;100.00
53651;BME280;39552;45.776;15.892;2022-11-11T08:46:00;102293.38;;;14.02;100.00
53651;BME280;39552;45.776;15.892;2022-11-11T08:48:27;102259.56;;;13.63;100.00
53651;BME280;39552;45.776;15.892;2022-11-11T08:50:55;102281.63;;;13.55;100.00
53651;BME280;39552;45.776;15.892;2022-11-11T08:53:27;102283.38;;;13.58;100.00
53651;BME280;39552;45.776;15.892;2022-11-11T08:55:55;102304.56;;;13.72;100.00
53651;BME280;39552;45.776;15.892;2022-11-11T08:58:22;102295.75;;;13.89;100.00
53651;BME280;39552;45.776;15.892;2022-11-11T09:00:49;102269.75;;;14.02;100.00
53651;BME280;39552;45.776;15.892;2022-11-11T09:03:16;102320.91;;;14.38;100.00
53651;BME280;39552;45.776;15.892;2022-11-11T09:05:47;102255.91;;;14.08;100.00
53651;BME280;39552;45.776;15.892;2022-11-11T09:08:13;102281.41;;;14.28;100.00
53651;BME280;39552;45.776;15.892;2022-11-11T09:10:41;102280.88;;;14.40;100.00
53651;BME280;39552;45.776;15.892;2022-11-11T09:13:10;102316.25;;;14.83;100.00
53651;BME280;39552;45.776;15.892;2022-11-11T09:15:37;102293.56;;;14.62;100.00
53651;BME280;39552;45.776;15.892;2022-11-11T09:18:04;102257.00;;;14.47;100.00
53651;BME280;39552;45.776;15.892;2022-11-11T09:20:31;102285.34;;;14.84;100.00
53651;BME280;39552;45.776;15.892;2022-11-11T09:22:57;102249.22;;;14.79;100.00
53651;BME280;39552;45.776;15.892;2022-11-11T09:25:24;102223.88;;;14.97;100.00
53651;BME280;39552;45.776;15.892;2022-11-11T09:27:55;102263.44;;;14.66;100.00
53651;BME280;39552;45.776;15.892;2022-11-11T09:30:23;102262.97;;;14.96;100.00
53651;BME280;39552;45.776;15.892;2022-11-11T09:32:50;102287.78;;;15.29;100.00
53651;BME280;39552;45.776;15.892;2022-11-11T09:35:17;102281.44;;;15.29;100.00
53651;BME280;39552;45.776;15.892;2022-11-11T09:37:52;102275.28;;;15.63;100.00
53651;BME280;39552;45.776;15.892;2022-11-11T09:40:21;102304.78;;;15.74;100.00
53651;BME280;39552;45.776;15.892;2022-11-11T09:42:58;102294.94;;;15.70;100.00
53651;BME280;39552;45.776;15.892;2022-11-11T09:45:34;102282.28;;;15.50;100.00
53651;BME280;39552;45.776;15.892;2022-11-11T09:48:13;102298.44;;;15.73;100.00
53651;BME280;39552;45.776;15.892;2022-11-11T09:50:48;102283.66;;;15.59;100.00
53651;BME280;39552;45.776;15.892;2022-11-11T09:53:20;102304.09;;;15.69;100.00
53651;BME280;39552;45.776;15.892;2022-11-11T09:55:55;102277.47;;;15.36;100.00
53651;BME280;39552;45.776;15.892;2022-11-11T09:58:28;102278.34;;;15.37;100.00
53651;BME280;39552;45.776;15.892;2022-11-11T10:01:01;102270.03;;;15.78;100.00
53651;BME280;39552;45.776;15.892;2022-11-11T10:03:33;102280.09;;;15.77;100.00
53651;BME280;39552;45.776;15.892;2022-11-11T10:06:08;102270.72;;;15.83;100.00
53651;BME280;39552;45.776;15.892;2022-11-11T10:08:45;102261.22;;;16.09;100.00
53651;BME280;39552;45.776;15.892;2022-11-11T10:11:26;102276.38;;;16.15;100.00
53651;BME280;39552;45.776;15.892;2022-11-11T10:13:55;102282.13;;;15.53;100.00
53651;BME280;39552;45.776;15.892;2022-11-11T10:16:29;102268.94;;;15.63;100.00
53651;BME280;39552;45.776;15.892;2022-11-11T10:19:18;102235.22;;;15.64;100.00
53651;BME280;39552;45.776;15.892;2022-11-11T10:21:50;102271.50;;;15.85;100.00
53651;BME280;39552;45.776;15.892;2022-11-11T10:24:40;102247.38;;;15.95;100.00
53651;BME280;39552;45.776;15.892;2022-11-11T10:27:17;102228.66;;;15.87;100.00
53651;BME280;39552;45.776;15.892;2022-11-11T10:29:44;102254.19;;;15.86;100.00
53651;BME280;39552;45.776;15.892;2022-11-11T10:32:17;102229.75;;;15.83;100.00
53651;BME280;39552;45.776;15.892;2022-11-11T10:34:45;102266.91;;;16.04;100.00
53651;BME280;39552;45.776;15.892;2022-11-11T10:37:17;102238.56;;;15.51;100.00
53651;BME280;39552;45.776;15.892;2022-11-11T10:39:59;102268.91;;;16.01;100.00
53651;BME280;39552;45.776;15.892;2022-11-11T10:42:35;102262.09;;;16.09;100.00
53651;BME280;39552;45.776;15.892;2022-11-11T10:48:27;102230.56;;;15.85;100.00
53651;BME280;39552;45.776;15.892;2022-11-11T10:53:04;102204.16;;;15.66;100.00
53651;BME280;39552;45.776;15.892;2022-11-11T11:15:38;102239.94;;;16.16;100.00
53651;BME280;39552;45.776;15.892;2022-11-11T11:18:22;102213.50;;;16.34;100.00
53651;BME280;39552;45.776;15.892;2022-11-11T11:21:05;102199.44;;;16.41;100.00
53651;BME280;39552;45.776;15.892;2022-11-11T11:23:38;102208.75;;;16.37;100.00
53651;BME280;39552;45.776;15.892;2022-11-11T12:12:14;102212.09;;;16.77;100.00
53651;BME280;39552;45.776;15.892;2022-11-11T12:14:58;102148.91;;;16.50;100.00
53651;BME280;39552;45.776;15.892;2022-11-11T12:17:43;102161.31;;;16.73;100.00
53651;BME280;39552;45.776;15.892;2022-11-11T12:20:27;102144.97;;;16.71;100.00
53651;BME280;39552;45.776;15.892;2022-11-11T12:23:11;102149.94;;;16.81;100.00
53651;BME280;39552;45.776;15.892;2022-11-11T12:25:54;102169.72;;;16.86;100.00
53651;BME280;39552;45.776;15.892;2022-11-11T12:28:39;102148.75;;;16.86;100.00
53651;BME280;39552;45.776;15.892;2022-11-11T12:31:45;102132.25;;;16.55;100.00
53651;BME280;39552;45.776;15.892;2022-11-11T12:35:30;102194.25;;;16.87;100.00
53651;BME280;39552;45.776;15.892;2022-11-11T12:55:29;102181.72;;;16.83;100.00
53651;BME280;39552;45.776;15.892;2022-11-11T13:06:24;102140.75;;;16.66;100.00
53651;BME280;39552;45.776;15.892;2022-11-11T13:09:22;102135.41;;;16.47;100.00
53651;BME280;39552;45.776;15.892;2022-11-11T13:12:00;102158.97;;;16.83;100.00
53651;BME280;39552;45.776;15.892;2022-11-11T13:14:55;102116.63;;;16.41;100.00
53651;BME280;39552;45.776;15.892;2022-11-11T13:17:50;102122.00;;;16.42;100.00
53651;BME280;39552;45.776;15.892;2022-11-11T13:20:45;102128.38;;;16.25;100.00
53651;BME280;39552;45.776;15.892;2022-11-11T13:23:16;102184.19;;;16.70;100.00
53651;BME280;39552;45.776;15.892;2022-11-11T13:25:45;102148.75;;;16.36;100.00
53651;BME280;39552;45.776;15.892;2022-11-11T13:28:22;102119.84;;;16.31;100.00
53651;BME280;39552;45.776;15.892;2022-11-11T13:31:13;102117.19;;;16.12;100.00
53651;BME280;39552;45.776;15.892;2022-11-11T13:33:49;102114.06;;;16.03;100.00
53651;BME280;39552;45.776;15.892;2022-11-11T13:36:40;102154.41;;;16.15;100.00
53651;BME280;39552;45.776;15.892;2022-11-11T13:39:22;102118.75;;;15.83;100.00
53651;BME280;39552;45.776;15.892;2022-11-11T13:42:01;102138.81;;;15.82;100.00
53651;BME280;39552;45.776;15.892;2022-11-11T13:45:12;102169.66;;;16.02;100.00
53651;BME280;39552;45.776;15.892;2022-11-11T13:48:24;102138.03;;;15.80;100.00
53651;BME280;39552;45.776;15.892;2022-11-11T13:51:21;102136.19;;;15.62;100.00
53651;BME280;39552;45.776;15.892;2022-11-11T13:54:20;102185.06;;;15.66;100.00
53651;BME280;39552;45.776;15.892;2022-11-11T13:56:49;102147.63;;;15.51;100.00
53651;BME280;39552;45.776;15.892;2022-11-11T13:59:21;102117.81;;;15.29;100.00
53651;BME280;39552;45.776;15.892;2022-11-11T14:05:18;102182.38;;;15.47;100.00
53651;BME280;39552;45.776;15.892;2022-11-11T14:07:53;102169.13;;;15.40;100.00
53651;BME280;39552;45.776;15.892;2022-11-11T16:30:21;102159.50;;;11.79;100.00
53651;BME280;39552;45.776;15.892;2022-11-11T16:39:28;102163.31;;;11.74;100.00
53651;BME280;39552;45.776;15.892;2022-11-11T16:42:16;102166.91;;;11.48;100.00
53651;BME280;39552;45.776;15.892;2022-11-11T16:44:59;102216.25;;;11.86;100.00
53651;BME280;39552;45.776;15.892;2022-11-11T16:47:45;102206.34;;;11.85;100.00
53651;BME280;39552;45.776;15.892;2022-11-11T16:50:26;102174.66;;;11.58;100.00
53651;BME280;39552;45.776;15.892;2022-11-11T16:53:00;102238.94;;;11.83;100.00
53651;BME280;39552;45.776;15.892;2022-11-11T16:55:38;102239.91;;;11.82;100.00
53651;BME280;39552;45.776;15.892;2022-11-11T16:58:34;102206.41;;;11.55;100.00